Kapolei, Hawaii
Current Conditions -  °F | °C
As of 8:53 PM on Monday 20 Oct 2014 (Local Time) from PHJR Reporting Station
Scattered Clouds Scattered Clouds  
Wind Chill: 77°   Ceiling: Unl
Heat Index: 79°   Visibility: 10mi
Dew Point: 70°   Wind: 3mph
Humidity: 79%   Direction: 70°ENE
Pressure: 30.04"   Gusts: NA
Location:  21.35°N, 158.01°W
Report Text: PHJR 210653Z 07003KT 10SM SCT044 25/21 A3004 RMK AO2 SLP179 T02500211
Loading
Personal Weather Stations






























Interactive Weather Map
Tropical Storm Tracking
New forecast layout! Learn more

10-Day Weather Forecast

Advertisements
Track Severe Weather on mobile